Time;durP1;ratioP1;P1;durP2;ratioP2;P2;SDS_P1;SDS_P2;PMS_P1;PMS_P2;Temp;Humidity;BMP_temperature;BMP_pressure;BME280_temperature;BME280_humidity;BME280_pressure;Samples;Min_cycle;Max_cycle;Signal;HPM_P1;HPM_P2
2022/09/15 00:00:53;;;;;;;25.50;17.60;;;;;;;;;;5016388;28;20041;-89
2022/09/15 00:03:21;;;;;;;22.90;15.35;;;;;;;12.57;100.00;68169.81;5025348;28;20054;-89
2022/09/15 00:05:46;;;;;;;22.77;17.35;;;;;;;;;;5028212;28;20029;-90
2022/09/15 00:08:12;;;;;;;24.05;15.95;;;;;;;12.56;100.00;68163.34;5030675;28;20404;-89
2022/09/15 00:10:46;;;;;;;23.10;17.20;;;;;;;12.54;100.00;68166.97;5031562;28;20037;-89
2022/09/15 00:13:12;;;;;;;24.17;17.10;;;;;;;12.65;100.00;68178.91;5026247;28;20029;-89
2022/09/15 00:15:37;;;;;;;27.77;17.25;;;;;;;12.64;100.00;68178.34;5020754;28;20306;-89
2022/09/15 00:18:03;;;;;;;26.05;18.70;;;;;;;12.63;100.00;68176.66;5017486;28;20046;-89
2022/09/15 00:20:28;;;;;;;29.23;17.83;;;;;;;12.66;100.00;68174.72;5031586;28;20042;-89
2022/09/15 00:22:54;;;;;;;26.52;16.70;;;;;;;12.69;100.00;68177.53;5030268;28;20038;-89
2022/09/15 00:25:19;;;;;;;21.48;16.20;;;;;;;12.73;100.00;68188.00;5030366;28;20068;-89
2022/09/15 00:27:44;;;;;;;28.40;17.67;;;;;;;12.79;100.00;68188.91;5026085;28;20055;-89
2022/09/15 00:30:10;;;;;;;25.52;17.17;;;;;;;12.76;100.00;68191.41;5029640;28;20056;-89
2022/09/15 00:32:35;;;;;;;25.88;18.15;;;;;;;12.77;100.00;68192.56;5030883;28;20111;-89
2022/09/15 00:35:00;;;;;;;24.10;15.57;;;;;;;;;;5027119;28;20361;-88
2022/09/15 00:37:26;;;;;;;22.80;16.70;;;;;;;12.76;100.00;68191.41;5026776;28;20041;-89
2022/09/15 00:39:52;;;;;;;25.27;16.90;;;;;;;12.78;100.00;68193.69;5027557;28;20280;-88
2022/09/15 00:42:19;;;;;;;23.92;15.70;;;;;;;12.81;100.00;68191.78;5030076;28;20120;-88
2022/09/15 00:44:55;;;;;;;24.98;14.57;;;;;;;;;;5023102;28;20519;-89
2022/09/15 00:47:27;;;;;;;21.42;15.95;;;;;;;12.92;100.00;68203.13;4996493;28;20046;-89
2022/09/15 00:49:58;;;;;;;23.58;16.83;;;;;;;12.97;100.00;68208.81;5015293;28;20439;-89
2022/09/15 00:52:35;;;;;;;23.80;18.13;;;;;;;12.93;100.00;68210.19;5030501;28;20068;-89
2022/09/15 00:55:07;;;;;;;23.50;15.85;;;;;;;;;;5016922;28;20037;-89
2022/09/15 00:57:45;;;;;;;24.88;16.88;;;;;;;12.93;100.00;68204.84;5024537;28;20041;-89
2022/09/15 01:00:15;;;;;;;23.30;15.20;;;;;;;12.93;100.00;68209.63;5013731;28;20055;-89
2022/09/15 01:02:43;;;;;;;22.00;15.18;;;;;;;12.95;100.00;68201.22;5031183;28;20102;-88
2022/09/15 01:05:11;;;;;;;21.77;14.07;;;;;;;12.95;100.00;68203.88;5027105;28;20053;-88
2022/09/15 01:07:39;;;;;;;22.20;17.58;;;;;;;;;;5025775;28;20042;-89
2022/09/15 01:10:07;;;;;;;24.70;16.52;;;;;;;;;;5020447;28;20052;-89
2022/09/15 01:12:32;;;;;;;23.15;14.65;;;;;;;12.97;100.00;68214.72;5026627;28;20390;-89
2022/09/15 01:15:00;;;;;;;23.35;17.73;;;;;;;13.03;100.00;68221.56;5023953;28;20706;-89
2022/09/15 01:17:33;;;;;;;22.02;14.30;;;;;;;13.07;100.00;68220.75;5025949;28;20057;-89
2022/09/15 01:20:30;;;;;;;20.42;14.65;;;;;;;13.09;100.00;68222.47;5023956;28;20049;-89
2022/09/15 01:22:55;;;;;;;19.50;14.27;;;;;;;;;;5025893;28;20042;-89
2022/09/15 01:26:05;;;;;;;20.23;14.23;;;;;;;13.14;100.00;68222.22;5027065;28;20061;-88
2022/09/15 01:28:37;;;;;;;23.70;13.90;;;;;;;13.09;100.00;68222.47;4991223;28;20103;-88
2022/09/15 01:31:14;;;;;;;24.42;16.60;;;;;;;13.16;100.00;68229.84;5019025;28;20463;-89
2022/09/15 01:33:45;;;;;;;23.98;16.65;;;;;;;;;;5022193;28;20034;-89
2022/09/15 01:36:23;;;;;;;22.13;15.02;;;;;;;13.22;100.00;68237.25;5020746;28;20041;-89
2022/09/15 01:39:04;;;;;;;23.25;13.98;;;;;;;13.13;100.00;68224.34;5024889;28;20515;-89
2022/09/15 01:41:49;;;;;;;21.70;13.82;;;;;;;13.20;100.00;68239.75;5002608;28;20120;-89
2022/09/15 01:44:23;;;;;;;25.20;16.83;;;;;;;13.25;100.00;68240.69;5027029;28;20026;-89
2022/09/15 01:46:54;;;;;;;22.95;15.50;;;;;;;13.24;100.00;68244.31;5026400;28;20480;-90
2022/09/15 01:49:25;;;;;;;23.60;17.02;;;;;;;13.25;100.00;68240.69;5024985;28;20073;-89
2022/09/15 01:51:52;;;;;;;22.50;15.15;;;;;;;13.25;100.00;68237.41;5028240;28;20048;-89
2022/09/15 01:54:35;;;;;;;23.83;18.83;;;;;;;13.29;100.00;68250.59;5020822;28;20053;-89
2022/09/15 01:57:01;;;;;;;25.33;14.32;;;;;;;;;;5027424;28;20076;-88
2022/09/15 01:59:27;;;;;;;22.80;16.80;;;;;;;13.25;100.00;68240.69;5028789;28;20045;-89
2022/09/15 02:02:02;;;;;;;25.27;17.15;;;;;;;;;;5026643;28;20040;-90
2022/09/15 02:04:28;;;;;;;23.38;16.98;;;;;;;;;;5007359;28;20068;-90
2022/09/15 02:07:15;;;;;;;26.48;16.08;;;;;;;13.35;100.00;68248.81;5021475;28;20128;-88
2022/09/15 02:09:53;;;;;;;27.42;17.00;;;;;;;13.29;100.00;68244.66;5021705;28;20488;-86
2022/09/15 02:12:32;;;;;;;27.17;15.93;;;;;;;;;;5022406;28;20048;-89
2022/09/15 02:15:04;;;;;;;26.52;19.75;;;;;;;13.30;100.00;68246.38;5024332;28;20037;-87
2022/09/15 02:17:31;;;;;;;25.65;16.80;;;;;;;13.28;100.00;68243.53;5022890;28;20056;-88
2022/09/15 02:20:01;;;;;;;27.77;17.02;;;;;;;;;;5024692;28;20048;-87
2022/09/15 02:22:29;;;;;;;25.55;15.13;;;;;;;;;;5027759;28;20508;-87
2022/09/15 02:25:08;;;;;;;26.23;17.40;;;;;;;13.28;100.00;68244.09;5023219;28;20041;-87
2022/09/15 02:27:42;;;;;;;30.88;17.70;;;;;;;13.23;100.00;68243.72;5024580;28;20129;-87
2022/09/15 02:30:10;;;;;;;27.58;17.95;;;;;;;;;;5025312;28;20068;-87
2022/09/15 02:32:37;;;;;;;29.27;19.90;;;;;;;;;;5024604;28;20244;-88
2022/09/15 02:35:05;;;;;;;30.75;18.70;;;;;;;;;;5019305;28;20037;-89
2022/09/15 02:37:31;;;;;;;29.02;17.95;;;;;;;13.27;100.00;68240.28;5018379;28;20585;-87
2022/09/15 02:39:57;;;;;;;27.98;17.27;;;;;;;;;;5014397;28;20522;-88
2022/09/15 02:42:28;;;;;;;29.52;19.88;;;;;;;13.32;100.00;68248.66;5018256;28;20072;-88
2022/09/15 02:44:54;;;;;;;29.55;18.67;;;;;;;13.35;100.00;68250.91;5023582;28;20070;-87
2022/09/15 02:47:19;;;;;;;28.02;19.42;;;;;;;13.39;100.00;68255.47;5019287;28;20065;-87
2022/09/15 02:49:44;;;;;;;26.40;16.30;;;;;;;13.34;100.00;68249.78;5020090;28;20638;-88
2022/09/15 02:52:10;;;;;;;28.48;18.73;;;;;;;;;;5007310;28;20052;-87
2022/09/15 02:54:35;;;;;;;25.85;17.50;;;;;;;13.44;100.00;68267.06;5025393;28;20057;-88
2022/09/15 02:57:00;;;;;;;25.25;19.67;;;;;;;13.39;100.00;68252.78;5024818;28;20037;-87
2022/09/15 03:00:11;;;;;;;26.60;17.85;;;;;;;13.37;100.00;68259.09;5031453;28;20471;-87
2022/09/15 03:02:12;;;;;;;27.00;17.60;;;;;;;13.35;100.00;68250.91;5023941;28;20053;-87
2022/09/15 03:04:38;;;;;;;29.08;18.88;;;;;;;13.34;100.00;68249.78;5013686;28;20045;-88
2022/09/15 03:07:03;;;;;;;25.83;16.10;;;;;;;13.29;100.00;68244.66;5011121;28;20060;-88
2022/09/15 03:09:28;;;;;;;27.42;19.35;;;;;;;;;;5022541;28;20045;-87
2022/09/15 03:11:54;;;;;;;25.30;18.83;;;;;;;13.26;100.00;68241.25;5027558;28;20049;-88
2022/09/15 03:14:19;;;;;;;29.42;21.27;;;;;;;13.25;100.00;68240.69;5028681;28;20303;-87
2022/09/15 03:16:44;;;;;;;29.08;18.10;;;;;;;13.25;100.00;68240.69;5028101;28;20075;-88
2022/09/15 03:19:11;;;;;;;27.90;20.27;;;;;;;13.25;100.00;68237.41;5029528;28;20059;-89
2022/09/15 03:21:36;;;;;;;31.88;19.52;;;;;;;;;;5026191;28;20627;-88
2022/09/15 03:24:02;;;;;;;27.00;17.75;;;;;;;13.18;100.00;68232.69;5030543;28;20377;-87
2022/09/15 03:26:27;;;;;;;24.73;19.02;;;;;;;13.19;100.00;68238.63;5031639;28;20045;-87
2022/09/15 03:28:52;;;;;;;29.73;17.80;;;;;;;13.19;100.00;68239.19;5025421;28;20033;-88
2022/09/15 03:31:18;;;;;;;32.88;21.52;;;;;;;13.19;100.00;68233.25;5024819;28;20099;-87
2022/09/15 03:33:44;;;;;;;27.55;20.10;;;;;;;13.20;100.00;68234.97;5012690;28;20116;-87
2022/09/15 03:36:09;;;;;;;26.05;17.95;;;;;;;;;;5025151;28;20385;-87
2022/09/15 03:38:34;;;;;;;26.40;19.08;;;;;;;;;;5030424;28;20069;-89
2022/09/15 03:41:03;;;;;;;28.85;18.83;;;;;;;13.26;100.00;68238.56;5023647;28;20103;-87
2022/09/15 03:43:30;;;;;;;25.52;17.52;;;;;;;13.29;100.00;68245.22;5023568;28;20041;-87
2022/09/15 03:45:57;;;;;;;26.17;16.17;;;;;;;13.29;100.00;68250.00;5025632;28;20401;-87
2022/09/15 03:48:23;;;;;;;22.52;17.13;;;;;;;13.36;100.00;68249.38;5021103;28;20536;-87
2022/09/15 03:50:49;;;;;;;22.35;15.98;;;;;;;13.39;100.00;68252.78;5024911;28;20245;-87
2022/09/15 03:53:15;;;;;;;22.23;16.30;;;;;;;13.39;100.00;68255.47;5020346;28;20132;-87
2022/09/15 03:55:40;;;;;;;23.48;16.35;;;;;;;13.43;100.00;68260.00;5026986;28;20045;-88
2022/09/15 03:58:05;;;;;;;21.98;15.02;;;;;;;13.45;100.00;68267.63;5029430;28;20451;-88
2022/09/15 04:00:31;;;;;;;21.27;13.60;;;;;;;13.45;100.00;68262.84;5014247;28;20041;-87
2022/09/15 04:02:56;;;;;;;19.77;13.18;;;;;;;13.44;100.00;68261.72;5030417;28;20033;-87
2022/09/15 04:05:22;;;;;;;23.27;15.13;;;;;;;;;;5024143;28;20072;-88
2022/09/15 04:07:49;;;;;;;25.67;15.30;;;;;;;13.51;100.00;68266.44;5022388;28;20467;-87
2022/09/15 04:10:15;;;;;;;21.92;14.25;;;;;;;13.49;100.00;68264.75;5026158;28;20280;-89
2022/09/15 04:12:40;;;;;;;22.85;15.68;;;;;;;13.50;100.00;68273.31;5030151;28;20042;-87
2022/09/15 04:15:06;;;;;;;19.30;13.13;;;;;;;13.47;100.00;68269.91;5019962;28;20106;-88
2022/09/15 04:17:32;;;;;;;20.52;14.20;;;;;;;13.45;100.00;68268.19;5020274;28;20149;-86
2022/09/15 04:19:57;;;;;;;18.40;13.25;;;;;;;;;;5023452;28;20263;-87
2022/09/15 04:22:22;;;;;;;22.13;14.07;;;;;;;;;;5028922;28;20167;-87
2022/09/15 04:24:48;;;;;;;20.88;14.50;;;;;;;;;;5009246;28;20475;-87
2022/09/15 04:27:15;;;;;;;19.13;13.73;;;;;;;13.42;100.00;68258.88;5023508;28;20564;-87
2022/09/15 04:29:41;;;;;;;21.83;14.80;;;;;;;;;;5017507;28;20520;-87
2022/09/15 04:32:06;;;;;;;19.63;13.00;;;;;;;13.42;100.00;68258.88;5035702;28;20045;-89
2022/09/15 04:34:32;;;;;;;21.45;13.73;;;;;;;13.42;100.00;68264.78;5034923;28;20045;-90
2022/09/15 04:36:57;;;;;;;18.63;14.32;;;;;;;13.40;100.00;68257.16;5031625;28;20038;-89
2022/09/15 04:39:23;;;;;;;20.95;13.60;;;;;;;13.37;100.00;68258.53;5046863;28;20235;-87
2022/09/15 04:41:48;;;;;;;18.23;13.55;;;;;;;;;;5036509;28;20091;-87
2022/09/15 04:44:13;;;;;;;18.67;13.07;;;;;;;;;;5023957;28;20034;-87
2022/09/15 04:46:39;;;;;;;23.05;14.55;;;;;;;13.34;100.00;68250.34;5024033;28;20041;-87
2022/09/15 04:49:04;;;;;;;17.50;12.68;;;;;;;;;;5029810;28;20378;-86
2022/09/15 04:51:30;;;;;;;16.67;12.63;;;;;;;13.28;100.00;68244.09;5028708;28;20110;-86
2022/09/15 04:53:56;;;;;;;15.45;12.68;;;;;;;13.35;100.00;68256.25;5023352;28;20046;-87
2022/09/15 04:56:24;;;;;;;16.42;12.23;;;;;;;13.36;100.00;68257.41;5029406;28;20042;-85
2022/09/15 04:58:54;;;;;;;14.85;10.63;;;;;;;13.32;100.00;68254.00;5025734;28;20073;-86
2022/09/15 05:01:25;;;;;;;13.35;9.70;;;;;;;13.35;100.00;68256.84;5020919;28;20463;-87
2022/09/15 05:03:50;;;;;;;15.18;11.10;;;;;;;;;;5027439;28;20068;-86
2022/09/15 05:06:21;;;;;;;14.73;10.70;;;;;;;13.38;100.00;68254.31;5027504;28;20660;-87
2022/09/15 05:08:47;;;;;;;12.15;9.68;;;;;;;;;;5022326;28;20046;-87
2022/09/15 05:11:13;;;;;;;15.00;10.50;;;;;;;;;;5027954;28;20037;-87
2022/09/15 05:13:39;;;;;;;15.73;10.27;;;;;;;13.38;100.00;68262.91;5023107;28;20053;-85
2022/09/15 05:16:13;;;;;;;17.67;10.02;;;;;;;13.36;100.00;68249.38;5026170;28;20043;-86
2022/09/15 05:18:39;;;;;;;14.55;9.15;;;;;;;13.37;100.00;68253.75;5025703;28;20389;-86
2022/09/15 05:21:07;;;;;;;15.65;9.63;;;;;;;13.42;100.00;68264.22;5025059;28;20041;-86
2022/09/15 05:23:34;;;;;;;14.63;9.82;;;;;;;13.43;100.00;68260.00;5023923;28;20049;-86
2022/09/15 05:26:01;;;;;;;15.38;9.10;;;;;;;13.40;100.00;68257.16;5021758;28;20495;-86
2022/09/15 05:28:27;;;;;;;13.95;9.00;;;;;;;13.42;100.00;68253.53;5021081;28;20095;-87
2022/09/15 05:30:53;;;;;;;11.63;8.10;;;;;;;;;;5025525;28;20040;-86
2022/09/15 05:33:19;;;;;;;11.68;8.00;;;;;;;;;;5026508;28;20057;-86
2022/09/15 05:36:04;;;;;;;15.27;8.25;;;;;;;13.44;100.00;68261.16;5022667;28;20115;-86
2022/09/15 05:38:30;;;;;;;11.50;7.72;;;;;;;13.44;100.00;68266.50;5010208;28;20048;-86
2022/09/15 05:41:16;;;;;;;16.15;8.05;;;;;;;13.44;100.00;68261.72;5026789;28;20064;-86
2022/09/15 05:43:43;;;;;;;12.50;7.50;;;;;;;13.45;100.00;68268.19;5013579;28;20041;-86
2022/09/15 05:46:09;;;;;;;10.50;7.82;;;;;;;13.44;100.00;68258.47;5023507;28;20100;-86
2022/09/15 05:48:34;;;;;;;13.75;7.80;;;;;;;13.46;100.00;68269.34;5027434;28;20052;-87
2022/09/15 05:51:00;;;;;;;12.60;7.75;;;;;;;13.43;100.00;68265.34;5044120;28;20022;-87
2022/09/15 05:53:25;;;;;;;11.75;8.73;;;;;;;13.43;100.00;68265.91;5046396;28;20041;-87
2022/09/15 05:55:59;;;;;;;12.38;8.52;;;;;;;13.45;100.00;68267.63;5045347;28;20034;-88
2022/09/15 05:58:25;;;;;;;15.63;9.23;;;;;;;;;;5046417;28;20072;-87
2022/09/15 06:00:52;;;;;;;11.50;8.57;;;;;;;;;;5045957;28;20034;-87
2022/09/15 06:03:17;;;;;;;15.90;8.57;;;;;;;;;;5020175;28;20037;-87
2022/09/15 06:05:42;;;;;;;15.15;8.98;;;;;;;;;;5035925;28;20037;-86
2022/09/15 06:08:08;;;;;;;13.55;8.32;;;;;;;13.45;100.00;68259.63;5030827;28;20049;-86
2022/09/15 06:10:34;;;;;;;16.00;9.32;;;;;;;13.41;100.00;68257.75;5033240;28;20033;-86
2022/09/15 06:12:59;;;;;;;14.82;9.57;;;;;;;13.47;100.00;68264.56;5034017;28;20523;-86
2022/09/15 06:15:24;;;;;;;12.60;10.38;;;;;;;13.50;100.00;68267.97;5038372;28;20041;-86
2022/09/15 06:17:50;;;;;;;14.75;8.48;;;;;;;;;;5036426;28;20042;-87
2022/09/15 06:20:17;;;;;;;14.90;9.75;;;;;;;13.48;100.00;68271.63;5028231;28;20049;-86
2022/09/15 06:22:44;;;;;;;15.02;9.75;;;;;;;13.48;100.00;68263.03;5017503;28;20408;-86
2022/09/15 06:25:10;;;;;;;17.10;10.68;;;;;;;;;;5025503;28;20572;-86
2022/09/15 06:27:36;;;;;;;14.02;10.98;;;;;;;13.53;100.00;68268.72;5026502;28;20048;-84
2022/09/15 06:30:01;;;;;;;14.35;10.75;;;;;;;13.51;100.00;68269.09;5027324;28;20052;-85
2022/09/15 06:32:27;;;;;;;13.73;9.60;;;;;;;13.48;100.00;68266.25;5024951;28;20099;-85
2022/09/15 06:34:52;;;;;;;15.02;10.05;;;;;;;;;;5020157;28;20099;-85
2022/09/15 06:37:17;;;;;;;14.23;10.27;;;;;;;13.50;100.00;68273.91;5023244;28;20127;-84
2022/09/15 06:39:43;;;;;;;15.70;11.45;;;;;;;13.58;100.00;68277.09;5024153;28;20327;-84
2022/09/15 06:42:09;;;;;;;13.70;10.73;;;;;;;;;;5027246;28;20049;-84
2022/09/15 06:44:35;;;;;;;18.42;9.55;;;;;;;13.53;100.00;68271.38;5025667;28;20099;-85
2022/09/15 06:47:00;;;;;;;18.83;10.65;;;;;;;13.51;100.00;68269.69;5028626;28;20427;-85
2022/09/15 06:49:26;;;;;;;16.77;11.60;;;;;;;;;;5028769;28;20056;-86
2022/09/15 06:51:51;;;;;;;17.10;10.30;;;;;;;13.60;100.00;68278.78;5039980;28;20041;-88
2022/09/15 06:54:17;;;;;;;18.13;11.93;;;;;;;13.62;100.00;68281.63;5045018;28;20045;-85
2022/09/15 06:56:42;;;;;;;17.50;10.75;;;;;;;13.61;100.00;68280.50;5040511;28;20042;-87
2022/09/15 06:59:10;;;;;;;14.75;11.10;;;;;;;13.71;100.00;68297.22;5052752;28;20048;-86
2022/09/15 07:01:36;;;;;;;17.48;10.30;;;;;;;;;;5046720;28;20085;-85
2022/09/15 07:04:04;;;;;;;16.42;11.38;;;;;;;13.71;100.00;68291.84;5048936;28;20124;-85
2022/09/15 07:06:31;;;;;;;20.17;12.23;;;;;;;13.74;100.00;68294.69;5028609;28;20053;-85
2022/09/15 07:08:58;;;;;;;17.52;11.30;;;;;;;13.77;100.00;68298.69;5035493;28;20041;-85
2022/09/15 07:11:24;;;;;;;17.00;9.73;;;;;;;13.72;100.00;68287.06;5035705;28;20404;-85
2022/09/15 07:13:49;;;;;;;18.55;9.60;;;;;;;;;;5029709;28;20111;-85
2022/09/15 07:16:17;;;;;;;17.52;10.10;;;;;;;13.84;100.00;68305.50;5026439;28;21452;-85
2022/09/15 07:18:43;;;;;;;15.25;9.05;;;;;;;13.89;100.00;68311.75;5028596;28;20521;-85
2022/09/15 07:21:14;;;;;;;14.32;8.13;;;;;;;13.89;100.00;68311.19;5020660;28;20037;-84
2022/09/15 07:23:40;;;;;;;14.70;8.60;;;;;;;13.94;100.00;68316.88;5023533;28;20450;-85
2022/09/15 07:26:17;;;;;;;14.90;8.73;;;;;;;14.03;100.00;68332.47;5025131;28;20097;-86
2022/09/15 07:28:43;;;;;;;12.30;8.70;;;;;;;;;;5042209;28;20554;-85
2022/09/15 07:31:11;;;;;;;11.65;8.93;;;;;;;14.11;100.00;68333.56;5028892;28;20081;-85
2022/09/15 07:33:37;;;;;;;9.65;7.60;;;;;;;;;;5028505;28;20564;-84
2022/09/15 07:36:05;;;;;;;9.95;6.53;;;;;;;14.13;100.00;68343.88;5022550;28;20132;-86
2022/09/15 07:38:31;;;;;;;12.63;7.28;;;;;;;;;;5022331;28;20557;-86
2022/09/15 07:41:13;;;;;;;11.50;6.75;;;;;;;14.31;100.00;68358.44;5020624;28;20084;-85
2022/09/15 07:43:39;;;;;;;11.35;6.45;;;;;;;;;;5022299;28;20048;-85
2022/09/15 07:46:04;;;;;;;10.50;6.00;;;;;;;;;;5025602;28;20045;-85
2022/09/15 07:48:30;;;;;;;9.32;5.18;;;;;;;14.50;100.00;68384.84;5036872;28;20046;-85
2022/09/15 07:50:56;;;;;;;9.48;5.28;;;;;;;14.51;100.00;68380.63;5032335;28;20044;-85
2022/09/15 07:53:21;;;;;;;10.38;5.47;;;;;;;14.56;100.00;68383.09;5021965;28;20042;-85
2022/09/15 07:55:54;;;;;;;7.70;4.60;;;;;;;14.58;100.00;68388.03;5023930;28;20103;-85
2022/09/15 07:58:20;;;;;;;8.65;5.20;;;;;;;;;;5018840;28;20173;-86
2022/09/15 08:00:46;;;;;;;8.95;4.15;;;;;;;;;;5025727;28;20129;-85
2022/09/15 08:03:11;;;;;;;8.13;3.47;;;;;;;;;;5029257;28;20100;-85
2022/09/15 08:05:36;;;;;;;8.25;4.18;;;;;;;;;;5029610;28;20061;-86
2022/09/15 08:08:02;;;;;;;6.72;3.60;;;;;;;14.85;99.44;68418.22;5034735;28;20053;-86
2022/09/15 08:10:27;;;;;;;6.25;2.78;;;;;;;14.91;99.79;68425.06;5026050;28;20048;-85
2022/09/15 08:12:52;;;;;;;10.70;3.83;;;;;;;;;;5029400;28;20091;-84
2022/09/15 08:15:18;;;;;;;9.82;3.38;;;;;;;;;;5026684;28;20050;-86
2022/09/15 08:17:43;;;;;;;9.02;3.80;;;;;;;15.09;96.88;68444.97;5033406;28;20497;-85
2022/09/15 08:20:09;;;;;;;8.00;3.10;;;;;;;15.05;96.22;68440.44;5034289;28;20120;-85
2022/09/15 08:22:35;;;;;;;8.77;2.97;;;;;;;15.07;95.99;68440.56;5032269;28;20523;-85
2022/09/15 08:25:00;;;;;;;7.10;3.65;;;;;;;15.09;95.55;68445.53;5033804;28;20046;-85
2022/09/15 08:27:26;;;;;;;5.80;2.85;;;;;;;;;;5032479;28;20049;-85
2022/09/15 08:29:51;;;;;;;9.10;2.40;;;;;;;15.07;92.67;68440.56;5029737;28;20523;-86
2022/09/15 08:32:17;;;;;;;6.35;2.90;;;;;;;15.15;93.09;68445.88;5026001;28;20615;-86
2022/09/15 08:34:42;;;;;;;6.32;2.42;;;;;;;15.20;91.64;68462.31;5032915;28;20046;-87
2022/09/15 08:37:08;;;;;;;7.82;3.00;;;;;;;;;;5028732;28;20049;-86
2022/09/15 08:39:33;;;;;;;8.37;2.03;;;;;;;15.20;86.92;68456.94;5028444;28;20056;-86
2022/09/15 08:41:59;;;;;;;7.57;1.52;;;;;;;;;;5025966;28;20276;-86
2022/09/15 08:44:39;;;;;;;7.20;1.52;;;;;;;15.21;85.54;68458.06;5027728;28;20623;-88
2022/09/15 08:47:22;;;;;;;5.97;1.75;;;;;;;15.24;85.79;68461.50;5029446;28;20052;-86
2022/09/15 08:50:06;;;;;;;5.35;1.25;;;;;;;15.18;84.92;68455.22;5022919;28;20092;-86
2022/09/15 08:52:47;;;;;;;5.60;1.20;;;;;;;;;;5012118;28;20140;-86
2022/09/15 08:55:24;;;;;;;4.70;1.30;;;;;;;;;;5027461;28;20049;-87
2022/09/15 08:57:53;;;;;;;7.13;1.20;;;;;;;14.85;86.93;68416.13;5028728;28;20105;-85
2022/09/15 09:00:18;;;;;;;6.53;1.48;;;;;;;14.82;88.36;68420.16;5025592;28;20041;-87
2022/09/15 09:03:14;;;;;;;5.35;1.20;;;;;;;14.80;90.18;68418.44;5027427;28;20504;-85
2022/09/15 09:05:46;;;;;;;7.55;1.35;;;;;;;;;;4994248;28;20057;-86
2022/09/15 09:08:23;;;;;;;5.50;1.17;;;;;;;14.75;89.15;68406.81;5025513;28;20053;-86
2022/09/15 09:10:55;;;;;;;6.75;1.20;;;;;;;14.79;88.80;68419.44;5027577;28;20029;-86
2022/09/15 09:13:37;;;;;;;2.35;0.55;;;;;;;;;;5032576;28;20045;-85
2022/09/15 09:16:08;;;;;;;4.38;1.10;;;;;;;14.92;88.31;68423.50;5029457;28;20247;-86
2022/09/15 09:18:46;;;;;;;7.05;1.00;;;;;;;14.96;87.41;68428.06;5022095;28;20127;-85
2022/09/15 09:21:11;;;;;;;6.10;1.00;;;;;;;15.05;85.46;68440.44;5025453;28;20045;-85
2022/09/15 09:23:57;;;;;;;3.50;0.80;;;;;;;15.04;84.65;68439.84;5024474;28;20042;-84
2022/09/15 09:26:22;;;;;;;8.27;1.10;;;;;;;;;;5037851;28;20038;-86
2022/09/15 09:29:09;;;;;;;3.37;0.80;;;;;;;;;;5049760;28;20060;-86
2022/09/15 09:31:36;;;;;;;2.75;0.70;;;;;;;15.30;84.44;68468.88;5039465;28;20330;-86
2022/09/15 09:34:12;;;;;;;5.22;1.00;;;;;;;15.31;83.69;68467.34;5025864;28;20135;-85
2022/09/15 09:36:37;;;;;;;6.03;0.95;;;;;;;15.37;82.92;68475.75;5014187;28;20042;-85
2022/09/15 09:39:04;;;;;;;5.10;0.77;;;;;;;15.42;81.70;68487.38;5034840;28;20044;-85
2022/09/15 09:41:36;;;;;;;4.75;0.60;;;;;;;15.42;81.98;68482.00;5032529;28;20125;-86
2022/09/15 09:44:03;;;;;;;3.72;1.30;;;;;;;;;;5031822;28;20056;-85
2022/09/15 09:46:28;;;;;;;7.47;1.00;;;;;;;;;;5029607;28;20057;-85
2022/09/15 09:49:04;;;;;;;5.70;0.70;;;;;;;15.71;81.07;68514.50;5029129;28;20076;-85
2022/09/15 09:51:30;;;;;;;6.38;1.10;;;;;;;15.79;81.00;68523.63;5028969;28;20508;-84
2022/09/15 09:54:02;;;;;;;3.80;0.95;;;;;;;15.80;80.21;68521.50;5015310;28;20050;-85
2022/09/15 09:56:27;;;;;;;6.35;1.40;;;;;;;;;;5010825;28;20041;-85
2022/09/15 09:58:53;;;;;;;4.45;0.90;;;;;;;16.05;81.26;68549.41;5030073;28;20116;-86
2022/09/15 10:01:23;;;;;;;4.63;1.02;;;;;;;16.07;79.02;68559.19;5032509;28;20033;-86
2022/09/15 10:03:48;;;;;;;3.33;0.70;;;;;;;16.17;79.73;68565.78;5029741;28;20525;-86
2022/09/15 10:06:28;;;;;;;2.28;0.60;;;;;;;16.24;78.35;68570.50;5030425;28;20041;-86
2022/09/15 10:08:59;;;;;;;5.68;1.00;;;;;;;16.34;78.61;68581.31;5028158;28;20052;-87
2022/09/15 10:11:40;;;;;;;3.35;0.73;;;;;;;16.23;77.14;68569.38;5023129;28;20041;-87
2022/09/15 10:14:17;;;;;;;4.65;1.10;;;;;;;16.29;79.40;68576.19;5025280;28;20492;-86
2022/09/15 10:16:43;;;;;;;5.97;1.15;;;;;;;16.38;78.62;68589.13;5029721;28;20037;-86
2022/09/15 10:19:13;;;;;;;3.65;0.60;;;;;;;16.41;76.97;68592.56;5023844;28;20493;-86
2022/09/15 10:21:38;;;;;;;5.63;1.10;;;;;;;;;;5027228;28;20037;-87
2022/09/15 10:24:23;;;;;;;4.20;1.10;;;;;;;16.80;76.96;68629.97;5025915;28;20041;-86
2022/09/15 10:26:49;;;;;;;2.70;0.60;;;;;;;;;;5025972;28;20034;-86
2022/09/15 10:29:16;;;;;;;5.03;1.00;;;;;;;16.82;73.35;68637.63;5026071;28;20041;-85
2022/09/15 10:31:43;;;;;;;6.03;0.80;;;;;;;16.89;75.30;68640.81;5029296;28;20045;-84
2022/09/15 10:34:29;;;;;;;2.90;0.85;;;;;;;17.02;75.74;68660.44;5034761;28;20045;-83
2022/09/15 10:37:05;;;;;;;4.18;0.80;;;;;;;17.07;73.99;68666.13;5033082;28;20075;-85
2022/09/15 10:39:37;;;;;;;6.30;1.15;;;;;;;;;;5032635;28;20397;-84
2022/09/15 10:42:28;;;;;;;5.15;1.00;;;;;;;17.06;74.66;68664.41;5030821;28;20408;-84
2022/09/15 10:45:06;;;;;;;5.97;1.08;;;;;;;17.07;74.36;68665.56;5028872;28;20419;-84
2022/09/15 10:48:05;;;;;;;3.63;0.90;;;;;;;17.00;74.50;68654.88;5032401;28;20099;-85
2022/09/15 10:50:39;;;;;;;3.05;0.57;;;;;;;16.95;74.95;68652.44;5028911;28;20111;-85
2022/09/15 10:53:16;;;;;;;5.13;1.10;;;;;;;16.87;75.59;68643.88;5030000;28;20038;-85
2022/09/15 10:56:09;;;;;;;3.70;1.10;;;;;;;16.83;74.34;68638.75;4995912;28;20084;-85
2022/09/15 10:58:59;;;;;;;5.93;0.90;;;;;;;;;;5031623;28;20045;-85
2022/09/15 11:01:29;;;;;;;6.15;1.10;;;;;;;16.20;82.31;68568.63;5026933;28;20046;-85
2022/09/15 11:04:19;;;;;;;6.72;1.30;;;;;;;15.90;87.17;68532.88;5030533;28;20048;-85
2022/09/15 11:06:48;;;;;;;6.07;1.00;;;;;;;;;;5016183;28;20074;-85
2022/09/15 11:09:23;;;;;;;3.63;0.90;;;;;;;15.52;88.49;68493.38;5027033;28;20492;-84
2022/09/15 11:12:01;;;;;;;7.20;1.23;;;;;;;;;;5026805;28;20280;-85
2022/09/15 11:14:51;;;;;;;2.88;0.85;;;;;;;15.46;89.79;68486.56;5035088;28;20113;-85
2022/09/15 11:17:34;;;;;;;5.13;0.93;;;;;;;15.36;89.72;68475.16;5028037;28;20042;-85
2022/09/15 11:20:26;;;;;;;3.53;0.85;;;;;;;15.40;89.72;68479.16;5034122;28;20044;-85
2022/09/15 11:23:19;;;;;;;2.72;0.85;;;;;;;15.16;89.92;68452.38;5030927;28;20021;-85
2022/09/15 11:25:50;;;;;;;6.18;1.23;;;;;;;15.00;92.76;68434.72;5051747;28;20017;-86
2022/09/15 11:28:36;;;;;;;3.90;1.00;;;;;;;14.92;95.12;68422.94;5050477;28;20029;-85
2022/09/15 11:31:17;;;;;;;5.75;1.02;;;;;;;15.00;96.79;68440.09;5052911;28;20124;-86
2022/09/15 11:33:49;;;;;;;6.47;1.20;;;;;;;14.85;95.86;68415.53;5045600;28;20049;-84
2022/09/15 11:36:14;;;;;;;3.63;0.80;;;;;;;14.88;95.99;68418.97;5046146;28;20476;-85
2022/09/15 11:38:49;;;;;;;2.92;1.00;;;;;;;15.09;97.03;68444.97;5036304;28;20041;-84
2022/09/15 11:41:20;;;;;;;4.68;1.10;;;;;;;15.17;95.59;68453.53;5027771;28;20041;-84
2022/09/15 11:44:09;;;;;;;6.20;0.98;;;;;;;15.22;92.41;68456.53;5038429;28;20134;-85
2022/09/15 11:46:34;;;;;;;3.30;1.02;;;;;;;;;;5029523;28;20045;-85
2022/09/15 11:49:03;;;;;;;3.75;1.00;;;;;;;;;;5032081;28;20051;-85
2022/09/15 11:51:37;;;;;;;2.35;0.75;;;;;;;15.59;90.17;68498.09;5031206;28;20050;-85
2022/09/15 11:54:21;;;;;;;5.28;1.17;;;;;;;15.83;93.07;68527.59;5032771;28;20057;-84
2022/09/15 11:56:47;;;;;;;3.78;1.13;;;;;;;15.76;88.82;68516.94;5020517;28;20049;-84
2022/09/15 11:59:45;;;;;;;3.85;0.90;;;;;;;15.73;89.14;68513.50;5025829;28;20043;-85
2022/09/15 12:02:27;;;;;;;4.55;1.20;;;;;;;15.81;90.26;68524.75;5021217;28;20504;-84
2022/09/15 12:04:57;;;;;;;5.75;1.25;;;;;;;;;;5028601;28;20188;-84
2022/09/15 12:07:27;;;;;;;3.22;0.75;;;;;;;16.17;90.96;68565.19;5033988;28;20037;-85
2022/09/15 12:09:54;;;;;;;6.15;1.25;;;;;;;16.40;90.37;68588.75;5029449;28;20034;-83
2022/09/15 12:12:21;;;;;;;6.13;0.90;;;;;;;16.40;85.82;68591.44;5020210;28;20038;-83
2022/09/15 12:14:48;;;;;;;5.68;1.10;;;;;;;16.56;87.81;68605.84;5033922;28;20478;-85